COOK1: Arkansas River Nr Coolidge, KS

                                SHEF ID:       COOK1     ARKANSAS R NR COOLIDGE, KS
STATION TYPE:
Regulating: Stage = 8.00, Flow = 2026

PRECIP STAGE STAGE(2) RIV-FLOW WTR-TEMP CONDUCT BAT-LOAD
in ft ft cfs F umho/cm volt
Ccp-Rev Ccp-Rev Ccp-Rev Ccp-Rev Ccp-Rev Ccp-Rev Ccp-Rev
(America/Chicago)
07/21 00:00 0.00 4.53 4.67 370 78.66 3296 12.95
07/21 01:00 0.00 4.53 4.69 370 78.08 3296 12.89
07/21 02:00 0.00 4.53 4.67 370 77.58 3299 12.89
07/21 03:00 0.00 4.53 4.66 370 76.98 3305 12.89
07/21 04:00 0.00 4.51 4.65 365 76.41 3314 12.89
07/21 05:00 0.05 4.53 4.68 370 75.94 3321 12.89
07/21 06:00 0.04 4.52 4.68 368 75.43 3323 12.83
07/21 07:00 0.00 4.53 4.67 370 74.89 3312 12.83
07/21 08:00 0.00 4.51 4.67 365 74.46 3308 12.89
07/21 09:00 0.00 4.54 4.67 373 74.25 3312 13.00
07/21 10:00 0.00 4.54 4.68 373 74.39 3321 13.42
07/21 11:00 0.01 4.56 4.69 378 74.64 3326 13.53
07/21 12:00 0.00 4.59 4.73 386 75.06 3371 13.65
07/21 13:00 0.00 4.60 4.75 389 75.92 3375 13.77
07/21 14:00 0.00 4.61 4.75 392 77.13 3298 13.83
07/21 15:00 0.00 4.60 4.74 389 77.81 3328 13.59
07/21 16:00 0.00 4.57 4.70 381 77.94 3348 13.30
07/21 17:00 0.00 4.56 4.73 378 77.99 3334 13.24
07/21 18:00 0.00 4.55 4.69 376 77.72 3326 13.18
07/21 19:00 0.00 4.55 4.68 376 77.88 3330 13.24
07/21 20:00 0.00 4.51 4.68 365 77.77 3335 13.18
07/21 21:00 0.00 4.53 4.70 370 77.59 3335 13.07
07/21 22:00 0.00 4.55 4.69 376 77.16 3325 13.00
07/21 23:00 ---- ---- ---- ---- ---- ---- ----
Data processed at Mon 22Jul2024 04:30 GMT

Parsing this webpage?

Checkout our new Data API! CWMSDataAPI (CDA)

Timeseries IDs (TSIDs)

TSIDs used from left to right in the data table
COOL.Precip-Inc.Total.1Hour.1Hour.Ccp-Rev
COOL.Stage.Inst.1Hour.0.Ccp-Rev
COOL.Stage-Alt.Inst.1Hour.0.Ccp-Rev
COOL.Flow.Inst.1Hour.0.Ccp-Rev
COOL.Temp-Water.Inst.1Hour.0.Ccp-Rev
COOL.Cond.Inst.1Hour.0.Ccp-Rev
COOL.Volt-Battery Load.Inst.1Hour.0.Ccp-Rev

                            

All information presented herein is the property of the government of the United States of America and may be revised or deleted at any time without prior notice. Dissemination of this information without the expressed written consent of the Public Affairs Office, Tulsa District U.S. Army Corps of Engineers is strictly prohibited. These data are gathered electronically and, as presented, have NOT undergone any form of quality control. These data are NOT guaranteed to be valid or correct.